Time;durP1;ratioP1;P1;durP2;ratioP2;P2;SDS_P1;SDS_P2;PMS_P1;PMS_P2;Temp;Humidity;BMP_temperature;BMP_pressure;BME280_temperature;BME280_humidity;BME280_pressure;Samples;Min_cycle;Max_cycle;Signal;HPM_P1;HPM_P2
2022/01/13 00:00:23;;;;;;;19.57;12.40;;;;;;;;;;5070685;28;20964;-49
2022/01/13 00:02:49;;;;;;;21.60;12.87;;;;;;;;;;5084307;28;20420;-50
2022/01/13 00:05:33;;;;;;;19.73;12.60;;;;;;;;;;5090199;28;20768;-51
2022/01/13 00:08:00;;;;;;;22.53;13.17;;;;;;;;;;5077201;28;20617;-49
2022/01/13 00:10:30;;;;;;;15.33;10.83;;;;;;;;;;5071738;28;20429;-49
2022/01/13 00:13:08;;;;;;;17.87;12.17;;;;;;;;;;5047406;28;20777;-51
2022/01/13 00:18:36;;;;;;;20.57;13.53;;;;;;;;;;5080727;28;20501;-49
2022/01/13 00:24:13;;;;;;;19.57;12.47;;;;;;;;;;5071090;28;20926;-49
2022/01/13 00:26:42;;;;;;;18.00;13.03;;;;;;;;;;5098346;28;20439;-49
2022/01/13 00:29:20;;;;;;;17.67;12.60;;;;;;;;;;5065442;28;21014;-49
2022/01/13 00:31:49;;;;;;;23.23;14.27;;;;;;;;;;5087667;28;20536;-50
2022/01/13 00:34:16;;;;;;;17.87;12.53;;;;;;;;;;5063348;28;20862;-50
2022/01/13 00:36:52;;;;;;;29.83;15.77;;;;;;;;;;5072934;28;20560;-50
2022/01/13 00:39:22;;;;;;;21.40;14.03;;;;;;;;;;5084784;28;20458;-49
2022/01/13 00:42:06;;;;;;;20.77;14.30;;;;;;;;;;5079180;28;20450;-50
2022/01/13 00:44:52;;;;;;;24.13;14.30;;;;;;;;;;5047724;28;21049;-50
2022/01/13 00:47:20;;;;;;;24.67;15.93;;;;;;;;;;5064176;28;20429;-48
2022/01/13 00:49:48;;;;;;;26.20;14.30;;;;;;;;;;5083824;28;22136;-49
2022/01/13 00:52:15;;;;;;;21.03;13.70;;;;;;;;;;5086699;28;20428;-49
2022/01/13 00:54:42;;;;;;;22.77;13.20;;;;;;;;;;5090095;28;20659;-49
2022/01/13 00:57:09;;;;;;;21.57;14.57;;;;;;;;;;5063223;28;21101;-50
2022/01/13 00:59:35;;;;;;;24.33;14.43;;;;;;;;;;5071565;28;20443;-49
2022/01/13 01:02:01;;;;;;;24.07;14.27;;;;;;;;;;5084134;28;20436;-49
2022/01/13 01:04:29;;;;;;;26.10;16.23;;;;;;;;;;5092008;28;20456;-50
2022/01/13 01:06:55;;;;;;;23.37;16.73;;;;;;;;;;5049984;28;20760;-48
2022/01/13 01:09:37;;;;;;;24.77;15.60;;;;;;;;;;5087649;28;20796;-49
2022/01/13 01:12:03;;;;;;;24.73;15.20;;;;;;;;;;5085559;28;20425;-48
2022/01/13 01:14:33;;;;;;;24.90;16.20;;;;;;;;;;5069113;28;20882;-50
2022/01/13 01:16:59;;;;;;;24.03;15.00;;;;;;;;;;5047882;28;21012;-48
2022/01/13 01:19:28;;;;;;;26.00;15.20;;;;;;;;;;5069193;28;20842;-50
2022/01/13 01:27:43;;;;;;;21.17;13.40;;;;;;;;;;5022335;28;21059;-48
2022/01/13 01:30:23;;;;;;;21.33;14.30;;;;;;;;;;5085696;28;20446;-49
2022/01/13 01:32:49;;;;;;;22.57;15.20;;;;;;;;;;5075491;28;20455;-48
2022/01/13 01:35:17;;;;;;;22.53;14.17;;;;;;;;;;5090853;28;20537;-49
2022/01/13 01:37:52;;;;;;;22.73;16.00;;;;;;;;;;5071174;28;20614;-50
2022/01/13 01:40:19;;;;;;;21.27;15.00;;;;;;;;;;5087466;28;20454;-49
2022/01/13 01:42:52;;;;;;;21.83;15.20;;;;;;;;;;5081954;28;20506;-50
2022/01/13 01:45:19;;;;;;;25.70;15.87;;;;;;;;;;5079836;28;20475;-49
2022/01/13 01:47:50;;;;;;;24.47;16.23;;;;;;;;;;5048362;28;20521;-50
2022/01/13 01:50:18;;;;;;;24.13;15.77;;;;;;;;;;5060195;28;20448;-50
2022/01/13 01:52:44;;;;;;;21.83;13.83;;;;;;;;;;5073170;28;20428;-50
2022/01/13 01:55:10;;;;;;;20.40;15.37;;;;;;;;;;5089623;28;20489;-50
2022/01/13 01:57:36;;;;;;;24.53;15.87;;;;;;;;;;5060607;28;20794;-49
2022/01/13 02:00:04;;;;;;;23.93;15.30;;;;;;;;;;5081057;28;20455;-49
2022/01/13 02:02:30;;;;;;;20.07;13.00;;;;;;;;;;5052725;28;20487;-49
2022/01/13 02:04:57;;;;;;;25.93;15.30;;;;;;;;;;5086717;28;20440;-48
2022/01/13 02:07:38;;;;;;;25.90;14.10;;;;;;;;;;5076551;28;20436;-50
2022/01/13 02:10:05;;;;;;;20.60;13.10;;;;;;;;;;5086392;28;20918;-49
2022/01/13 02:12:42;;;;;;;21.73;13.67;;;;;;;;;;5087696;28;20526;-51
2022/01/13 02:18:03;;;;;;;22.50;15.57;;;;;;;;;;5056303;28;20524;-51
2022/01/13 02:20:55;;;;;;;21.40;15.30;;;;;;;;;;5078936;28;20551;-50
2022/01/13 02:23:35;;;;;;;22.37;13.47;;;;;;;;;;5082678;28;20463;-50
2022/01/13 02:26:01;;;;;;;20.50;13.60;;;;;;;;;;5071272;28;20764;-49
2022/01/13 02:28:28;;;;;;;21.90;14.07;;;;;;;;;;5062321;28;20783;-50
2022/01/13 02:30:58;;;;;;;24.60;14.20;;;;;;;;;;5090410;28;21388;-50
2022/01/13 02:33:24;;;;;;;19.87;13.87;;;;;;;;;;5043429;28;20867;-50
2022/01/13 02:35:50;;;;;;;23.70;14.47;;;;;;;;;;5077508;28;20819;-50
2022/01/13 02:38:16;;;;;;;21.43;15.07;;;;;;;;;;5084734;28;20442;-50
2022/01/13 02:40:42;;;;;;;23.90;15.27;;;;;;;;;;5090795;28;20466;-49
2022/01/13 02:43:08;;;;;;;20.50;13.57;;;;;;;;;;5072969;28;20440;-49
2022/01/13 02:45:38;;;;;;;21.27;13.77;;;;;;;;;;5090222;28;20475;-50
2022/01/13 02:48:26;;;;;;;21.97;15.13;;;;;;;;;;5056960;28;20557;-50
2022/01/13 02:50:53;;;;;;;25.27;14.43;;;;;;;;;;5075895;28;20967;-50
2022/01/13 02:53:29;;;;;;;21.20;14.27;;;;;;;;;;5048353;28;21477;-49
2022/01/13 02:56:01;;;;;;;20.40;15.30;;;;;;;;;;5095749;28;20439;-49
2022/01/13 02:58:33;;;;;;;23.20;14.20;;;;;;;;;;5044662;28;20520;-50
2022/01/13 03:00:59;;;;;;;23.87;15.60;;;;;;;;;;5086783;28;20509;-47
2022/01/13 03:03:27;;;;;;;22.87;14.53;;;;;;;;;;5067148;28;20932;-48
2022/01/13 03:05:53;;;;;;;25.07;16.00;;;;;;;;;;5093706;28;20544;-49
2022/01/13 03:08:19;;;;;;;23.30;14.23;;;;;;;;;;5089186;28;20719;-49
2022/01/13 03:10:45;;;;;;;22.10;15.57;;;;;;;;;;5098405;28;20443;-49
2022/01/13 03:13:33;;;;;;;21.07;16.10;;;;;;;;;;5076977;28;20444;-50
2022/01/13 03:16:00;;;;;;;25.20;13.57;;;;;;;;;;5075223;28;20454;-49
2022/01/13 03:18:28;;;;;;;21.30;15.07;;;;;;;;;;5076539;28;20431;-49
2022/01/13 03:20:54;;;;;;;22.00;15.00;;;;;;;;;;5085773;28;20464;-49
2022/01/13 03:23:20;;;;;;;27.27;15.63;;;;;;;;;;5074744;28;20607;-49
2022/01/13 03:25:48;;;;;;;24.63;15.60;;;;;;;;;;5051701;28;20773;-50
2022/01/13 03:28:17;;;;;;;19.90;14.87;;;;;;;;;;5069031;28;20423;-50
2022/01/13 03:30:44;;;;;;;25.47;15.30;;;;;;;;;;5058783;28;20800;-50
2022/01/13 03:33:11;;;;;;;30.50;16.53;;;;;;;;;;5090781;28;20428;-50
2022/01/13 03:35:37;;;;;;;22.10;14.17;;;;;;;;;;5079849;28;20476;-49
2022/01/13 03:38:20;;;;;;;25.90;14.37;;;;;;;;;;5068556;28;21007;-50
2022/01/13 03:40:46;;;;;;;22.23;13.17;;;;;;;;;;5087464;28;20480;-48
2022/01/13 03:43:15;;;;;;;21.60;14.73;;;;;;;;;;5076362;28;20518;-49
2022/01/13 03:45:41;;;;;;;24.00;14.53;;;;;;;;;;5103187;28;20436;-49
2022/01/13 03:48:09;;;;;;;28.97;14.00;;;;;;;;;;5089506;28;20440;-50
2022/01/13 03:50:45;;;;;;;20.27;13.00;;;;;;;;;;5081035;28;20436;-49
2022/01/13 03:53:17;;;;;;;22.43;14.13;;;;;;;;;;5084384;28;21052;-49
2022/01/13 03:56:02;;;;;;;23.47;14.17;;;;;;;;;;5092530;28;20501;-49
2022/01/13 03:58:28;;;;;;;20.40;14.80;;;;;;;;;;5090166;28;20437;-49
2022/01/13 04:01:15;;;;;;;23.73;13.67;;;;;;;;;;5089164;28;20432;-49
2022/01/13 04:04:14;;;;;;;21.57;14.80;;;;;;;;;;5102170;28;20991;-50
2022/01/13 04:06:46;;;;;;;22.40;12.63;;;;;;;;;;5095772;28;20436;-50
2022/01/13 04:09:37;;;;;;;18.13;13.30;;;;;;;;;;5065801;28;20539;-52
2022/01/13 04:12:07;;;;;;;17.37;11.70;;;;;;;;;;5084798;28;20528;-51
2022/01/13 04:15:17;;;;;;;20.20;13.43;;;;;;;;;;5084231;28;20596;-50
2022/01/13 04:17:24;;;;;;;24.10;15.10;;;;;;;;;;5083808;28;20437;-50
2022/01/13 04:19:50;;;;;;;21.60;13.37;;;;;;;;;;5080890;28;20520;-49
2022/01/13 04:22:21;;;;;;;22.37;13.77;;;;;;;;;;5103015;28;20976;-49
2022/01/13 04:24:51;;;;;;;30.03;14.87;;;;;;;;;;5093547;28;20428;-48
2022/01/13 04:27:22;;;;;;;22.33;13.33;;;;;;;;;;5091598;28;20508;-48
2022/01/13 04:30:00;;;;;;;22.00;13.13;;;;;;;;;;5075138;28;20462;-48
2022/01/13 04:32:26;;;;;;;19.87;13.83;;;;;;;;;;5089873;28;20600;-48
2022/01/13 04:34:52;;;;;;;19.40;12.70;;;;;;;;;;5081117;28;20628;-50
2022/01/13 04:37:21;;;;;;;18.43;13.33;;;;;;;;;;5086912;28;20476;-50
2022/01/13 04:39:47;;;;;;;19.63;14.00;;;;;;;;;;5074101;28;20479;-50
2022/01/13 04:42:14;;;;;;;22.40;14.20;;;;;;;;;;5087639;28;20471;-49
2022/01/13 04:44:40;;;;;;;23.80;14.67;;;;;;;;;;5064601;28;20510;-49
2022/01/13 04:47:07;;;;;;;26.77;14.50;;;;;;;;;;5079110;28;20686;-48
2022/01/13 04:49:35;;;;;;;21.77;13.10;;;;;;;;;;5073927;28;20455;-49
2022/01/13 04:52:01;;;;;;;22.63;14.50;;;;;;;;;;5090937;28;20433;-50
2022/01/13 04:54:27;;;;;;;22.53;14.37;;;;;;;;;;5085215;28;21033;-50
2022/01/13 04:57:06;;;;;;;34.30;14.40;;;;;;;;;;5061473;28;20815;-49
2022/01/13 04:59:33;;;;;;;19.83;13.90;;;;;;;;;;5086104;28;20671;-49
2022/01/13 05:02:00;;;;;;;21.77;13.03;;;;;;;;;;5046243;28;20471;-50
2022/01/13 05:04:26;;;;;;;14.80;12.47;;;;;;;;;;5074078;28;20440;-49
2022/01/13 05:07:03;;;;;;;17.47;12.87;;;;;;;;;;5070462;28;20860;-50
2022/01/13 05:09:34;;;;;;;21.70;14.43;;;;;;;;;;5088370;28;20445;-49
2022/01/13 05:12:02;;;;;;;27.83;15.20;;;;;;;;;;5086468;28;20767;-49
2022/01/13 05:14:30;;;;;;;16.90;12.83;;;;;;;;;;5075719;28;21285;-49
2022/01/13 05:17:09;;;;;;;21.43;13.37;;;;;;;;;;5065351;28;20484;-50
2022/01/13 05:19:41;;;;;;;24.53;14.93;;;;;;;;;;5087814;28;20433;-48
2022/01/13 05:24:37;;;;;;;29.00;15.73;;;;;;;;;;5072099;28;20440;-49
2022/01/13 05:27:12;;;;;;;17.80;12.97;;;;;;;;;;5060801;28;20566;-50
2022/01/13 05:29:41;;;;;;;25.10;14.60;;;;;;;;;;5078655;28;20587;-49
2022/01/13 05:32:30;;;;;;;20.27;14.50;;;;;;;;;;5063517;28;20837;-49
2022/01/13 05:34:58;;;;;;;26.03;15.40;;;;;;;;;;5078705;28;20483;-51
2022/01/13 05:38:02;;;;;;;24.40;14.73;;;;;;;;;;5065622;28;20436;-50
2022/01/13 05:40:35;;;;;;;25.63;13.73;;;;;;;;;;5085084;28;20444;-49
2022/01/13 05:43:01;;;;;;;26.20;16.43;;;;;;;;;;5077595;28;20477;-49
2022/01/13 05:45:29;;;;;;;22.63;14.47;;;;;;;;;;5085244;28;20447;-50
2022/01/13 05:48:03;;;;;;;21.40;14.30;;;;;;;;;;5096424;28;20432;-50
2022/01/13 05:50:29;;;;;;;20.93;15.20;;;;;;;;;;5073269;28;20472;-50
2022/01/13 05:52:57;;;;;;;21.07;13.17;;;;;;;;;;5090086;28;20449;-50
2022/01/13 05:55:23;;;;;;;22.60;13.63;;;;;;;;;;5077354;28;20488;-50
2022/01/13 05:57:55;;;;;;;22.37;14.53;;;;;;;;;;5088197;28;20505;-50
2022/01/13 06:00:24;;;;;;;19.37;13.80;;;;;;;;;;5081428;28;20444;-51
2022/01/13 06:02:51;;;;;;;22.03;15.40;;;;;;;;;;5068514;28;20494;-50
2022/01/13 06:05:18;;;;;;;24.77;13.97;;;;;;;;;;5080317;28;20472;-52
2022/01/13 06:07:44;;;;;;;24.10;15.63;;;;;;;;;;5085988;28;20460;-49
2022/01/13 06:10:13;;;;;;;21.50;14.47;;;;;;;;;;5068891;28;20441;-49
2022/01/13 06:12:41;;;;;;;24.97;15.23;;;;;;;;;;5067623;28;20502;-50
2022/01/13 06:15:25;;;;;;;23.83;16.00;;;;;;;;;;5085650;28;20498;-49
2022/01/13 06:17:56;;;;;;;20.43;14.77;;;;;;;;;;5059409;28;20441;-49
2022/01/13 06:20:39;;;;;;;20.47;14.20;;;;;;;;;;5088142;28;20447;-50
2022/01/13 06:23:08;;;;;;;25.07;16.43;;;;;;;;;;5071509;28;20439;-51
2022/01/13 06:25:43;;;;;;;19.00;13.07;;;;;;;;;;5082876;28;20482;-49
2022/01/13 06:28:09;;;;;;;25.20;14.53;;;;;;;;;;5079075;28;20435;-50
2022/01/13 06:30:35;;;;;;;23.20;15.10;;;;;;;;;;5087902;28;20439;-50
2022/01/13 06:33:03;;;;;;;19.47;15.03;;;;;;;;;;5084338;28;20440;-50
2022/01/13 06:38:34;;;;;;;23.03;15.13;;;;;;;;;;5079655;28;20588;-49
2022/01/13 06:41:09;;;;;;;18.20;13.70;;;;;;;;;;5076759;28;20435;-50
2022/01/13 06:43:36;;;;;;;20.97;13.37;;;;;;;;;;5078517;28;20474;-49
2022/01/13 06:46:11;;;;;;;21.40;13.50;;;;;;;;;;5078799;28;20460;-50
2022/01/13 06:48:42;;;;;;;24.57;14.93;;;;;;;;;;5085633;28;20457;-50
2022/01/13 06:51:29;;;;;;;30.07;16.30;;;;;;;;;;5074071;28;20445;-50
2022/01/13 06:54:16;;;;;;;23.33;14.80;;;;;;;;;;5086544;28;20478;-50
2022/01/13 06:56:44;;;;;;;25.20;14.30;;;;;;;;;;5081061;28;20797;-49
2022/01/13 06:59:13;;;;;;;23.63;14.77;;;;;;;;;;5076901;28;20463;-50
2022/01/13 07:01:41;;;;;;;24.00;13.70;;;;;;;;;;5076732;28;20442;-48
2022/01/13 07:04:13;;;;;;;18.93;13.70;;;;;;;;;;5077350;28;20491;-47
2022/01/13 07:06:44;;;;;;;24.90;14.27;;;;;;;;;;5066666;28;20450;-48
2022/01/13 07:09:11;;;;;;;21.50;14.77;;;;;;;;;;5042149;28;20436;-50
2022/01/13 07:11:37;;;;;;;18.30;13.70;;;;;;;;;;5088400;28;21010;-50
2022/01/13 07:14:03;;;;;;;25.83;14.70;;;;;;;;;;5079409;28;20455;-51
2022/01/13 07:16:30;;;;;;;19.80;14.70;;;;;;;;;;5076054;28;20472;-51
2022/01/13 07:18:56;;;;;;;18.20;14.43;;;;;;;;;;5062314;28;20450;-51
2022/01/13 07:21:26;;;;;;;21.90;14.67;;;;;;;;;;5088505;28;20539;-51
2022/01/13 07:27:34;;;;;;;20.80;14.97;;;;;;;;;;5086703;28;20433;-51
2022/01/13 07:30:22;;;;;;;19.13;13.63;;;;;;;;;;5066284;28;20448;-49
2022/01/13 07:32:50;;;;;;;21.23;15.07;;;;;;;;;;5065737;28;20431;-51
2022/01/13 07:35:17;;;;;;;19.87;13.20;;;;;;;;;;5071890;28;20486;-50
2022/01/13 07:37:43;;;;;;;24.60;16.67;;;;;;;;;;5091639;28;20805;-49
2022/01/13 07:40:13;;;;;;;21.00;15.43;;;;;;;;;;5062944;28;20504;-49
2022/01/13 07:43:02;;;;;;;19.57;14.63;;;;;;;;;;5074625;28;20440;-50
2022/01/13 07:45:36;;;;;;;27.03;16.57;;;;;;;;;;5082269;28;20458;-50
2022/01/13 07:48:03;;;;;;;21.30;13.70;;;;;;;;;;5079324;28;20590;-50
2022/01/13 07:50:29;;;;;;;21.83;14.80;;;;;;;;;;5085575;28;20511;-50
2022/01/13 07:52:56;;;;;;;25.13;15.60;;;;;;;;;;5048043;28;20437;-50
2022/01/13 07:55:23;;;;;;;25.20;15.97;;;;;;;;;;5051648;28;20479;-51
2022/01/13 07:57:51;;;;;;;18.47;13.70;;;;;;;;;;5070108;28;20783;-49
2022/01/13 08:00:24;;;;;;;25.33;15.57;;;;;;;;;;5084585;28;20447;-51
2022/01/13 08:02:57;;;;;;;23.87;16.07;;;;;;;;;;5068484;28;20463;-49
2022/01/13 08:05:24;;;;;;;20.90;14.53;;;;;;;;;;5074721;28;20852;-50
2022/01/13 08:07:54;;;;;;;25.17;14.43;;;;;;;;;;5058335;28;21302;-50
2022/01/13 08:10:20;;;;;;;24.90;14.70;;;;;;;;;;5082301;28;20479;-50
2022/01/13 08:13:10;;;;;;;24.90;15.03;;;;;;;;;;5057688;28;20805;-50
2022/01/13 08:15:54;;;;;;;22.07;15.20;;;;;;;;;;5065459;28;20476;-50
2022/01/13 08:21:06;;;;;;;25.97;16.40;;;;;;;;;;5083841;28;20570;-48
2022/01/13 08:23:32;;;;;;;20.20;14.83;;;;;;;;;;5086301;28;20497;-49
2022/01/13 08:25:58;;;;;;;26.27;14.63;;;;;;;;;;5089162;28;20433;-50
2022/01/13 08:28:27;;;;;;;15.57;13.00;;;;;;;;;;5068039;28;20971;-50
2022/01/13 08:30:53;;;;;;;21.20;13.67;;;;;;;;;;5089866;28;20439;-56
2022/01/13 08:33:22;;;;;;;18.17;10.50;;;;;;;;;;5067542;28;20477;-50
2022/01/13 08:35:48;;;;;;;15.83;9.30;;;;;;;;;;5090822;28;20496;-50
2022/01/13 08:38:18;;;;;;;13.47;7.90;;;;;;;;;;5066689;28;21107;-50
2022/01/13 08:40:45;;;;;;;14.17;8.70;;;;;;;;;;5075974;28;20532;-49
2022/01/13 08:43:11;;;;;;;18.90;8.80;;;;;;;;;;5048692;28;20447;-49
2022/01/13 08:45:37;;;;;;;13.97;9.53;;;;;;;;;;5087961;28;20448;-49
2022/01/13 08:48:03;;;;;;;21.30;12.10;;;;;;;;;;5082275;28;20436;-50
2022/01/13 08:50:29;;;;;;;18.57;10.97;;;;;;;;;;5088560;28;20440;-49
2022/01/13 08:52:55;;;;;;;16.93;9.97;;;;;;;;;;5066459;28;20471;-50
2022/01/13 08:55:51;;;;;;;16.50;9.47;;;;;;;;;;5094992;28;20604;-50
2022/01/13 08:58:36;;;;;;;10.43;6.80;;;;;;;;;;5088676;28;20443;-50
2022/01/13 09:01:02;;;;;;;11.90;8.67;;;;;;;;;;5084884;28;20450;-49
2022/01/13 09:03:33;;;;;;;13.53;8.53;;;;;;;;;;5051275;28;20470;-49
2022/01/13 09:06:01;;;;;;;13.30;8.53;;;;;;;;;;5064419;28;20445;-49
2022/01/13 09:08:48;;;;;;;15.20;9.87;;;;;;;;;;5076310;28;20538;-49
2022/01/13 09:11:17;;;;;;;14.23;8.60;;;;;;;;;;5083640;28;20946;-50
2022/01/13 09:14:25;;;;;;;12.87;8.77;;;;;;;;;;5079171;28;21048;-50
2022/01/13 09:16:57;;;;;;;16.80;9.37;;;;;;;;;;5076961;28;20465;-50
2022/01/13 09:19:25;;;;;;;14.00;9.27;;;;;;;;;;5068118;28;21832;-54
2022/01/13 09:21:52;;;;;;;14.13;10.53;;;;;;;;;;5053494;28;20455;-50
2022/01/13 09:24:21;;;;;;;15.20;10.20;;;;;;;;;;5060251;28;20448;-49
2022/01/13 09:26:47;;;;;;;12.70;8.80;;;;;;;;;;5055516;28;20460;-49
2022/01/13 09:29:15;;;;;;;12.53;9.43;;;;;;;;;;5077405;28;20429;-49
2022/01/13 09:31:41;;;;;;;16.13;10.67;;;;;;;;;;5085865;28;20969;-50
2022/01/13 09:34:08;;;;;;;17.07;9.60;;;;;;;;;;5059538;28;20712;-50
2022/01/13 09:36:34;;;;;;;18.30;10.17;;;;;;;;;;5061617;28;20695;-51
2022/01/13 09:39:02;;;;;;;19.10;11.10;;;;;;;;;;5066350;28;20533;-50
2022/01/13 09:41:33;;;;;;;17.60;11.47;;;;;;;;;;5050698;28;20917;-49
2022/01/13 09:44:00;;;;;;;15.93;10.27;;;;;;;;;;5082824;28;20437;-49
2022/01/13 09:46:27;;;;;;;14.73;9.67;;;;;;;;;;5050050;28;20590;-49
2022/01/13 09:48:54;;;;;;;16.97;10.87;;;;;;;;;;5088349;28;20830;-50
2022/01/13 09:51:37;;;;;;;16.77;10.87;;;;;;;;;;5079759;28;20449;-50
2022/01/13 09:54:03;;;;;;;18.10;12.57;;;;;;;;;;5081978;28;21177;-50
2022/01/13 09:56:30;;;;;;;17.27;11.63;;;;;;;;;;5042488;28;20857;-50
2022/01/13 09:58:57;;;;;;;19.80;12.10;;;;;;;;;;5084163;28;20430;-49
2022/01/13 10:01:43;;;;;;;19.90;12.60;;;;;;;;;;5069808;28;20452;-50
2022/01/13 10:04:09;;;;;;;19.63;12.90;;;;;;;;;;5067905;28;20494;-50
2022/01/13 10:06:42;;;;;;;20.47;11.97;;;;;;;;;;5065730;28;21040;-49
2022/01/13 10:09:09;;;;;;;16.57;12.30;;;;;;;;;;5061972;28;20460;-50
2022/01/13 10:11:38;;;;;;;20.93;13.17;;;;;;;;;;5063598;28;20437;-50
2022/01/13 10:14:05;;;;;;;16.63;11.70;;;;;;;;;;5075939;28;20412;-50
2022/01/13 10:16:32;;;;;;;19.67;11.20;;;;;;;;;;5080457;28;20564;-51
2022/01/13 10:18:59;;;;;;;20.63;11.90;;;;;;;;;;5024898;28;20421;-50
2022/01/13 10:21:28;;;;;;;27.00;14.27;;;;;;;;;;5081551;28;20467;-50
2022/01/13 10:24:27;;;;;;;19.57;11.60;;;;;;;;;;5042624;28;20447;-50
2022/01/13 10:26:58;;;;;;;17.60;11.30;;;;;;;;;;5081220;28;20950;-52
2022/01/13 10:29:35;;;;;;;18.93;11.10;;;;;;;;;;5042152;28;20449;-49
2022/01/13 10:32:01;;;;;;;16.70;11.90;;;;;;;;;;5069803;28;20436;-50
2022/01/13 10:34:28;;;;;;;15.77;9.97;;;;;;;;;;5081564;28;22187;-50
2022/01/13 10:37:21;;;;;;;14.77;10.73;;;;;;;;;;5079746;28;20440;-50
2022/01/13 10:39:50;;;;;;;16.70;10.73;;;;;;;;;;5054397;28;20447;-50
2022/01/13 10:42:45;;;;;;;14.70;10.30;;;;;;;;;;5081225;28;20412;-50
2022/01/13 10:45:14;;;;;;;19.43;10.70;;;;;;;;;;5066241;28;20779;-50
2022/01/13 10:47:40;;;;;;;12.37;9.43;;;;;;;;;;5079729;28;20444;-50
2022/01/13 10:50:08;;;;;;;15.17;9.10;;;;;;;;;;5049949;28;20452;-50
2022/01/13 10:52:34;;;;;;;15.33;10.10;;;;;;;;;;5062131;28;20525;-50
2022/01/13 10:55:10;;;;;;;13.80;10.17;;;;;;;;;;5082544;28;20483;-50
2022/01/13 10:57:36;;;;;;;13.60;10.03;;;;;;;;;;5081004;28;20435;-50
2022/01/13 11:00:07;;;;;;;17.87;10.67;;;;;;;;;;5053123;28;20475;-50
2022/01/13 11:02:33;;;;;;;14.13;9.80;;;;;;;;;;5055182;28;20447;-53
2022/01/13 11:05:02;;;;;;;12.93;9.30;;;;;;;;;;5050506;28;21047;-51
2022/01/13 11:07:30;;;;;;;21.73;11.93;;;;;;;;;;5081796;28;20675;-50
2022/01/13 11:10:03;;;;;;;14.80;9.60;;;;;;;;;;5058697;28;20448;-50
2022/01/13 11:12:35;;;;;;;15.03;11.03;;;;;;;;;;5077917;28;20439;-49
2022/01/13 11:15:06;;;;;;;17.73;10.43;;;;;;;;;;5078992;28;20480;-50
2022/01/13 11:17:38;;;;;;;15.13;10.10;;;;;;;;;;5087303;28;20975;-50
2022/01/13 11:20:05;;;;;;;13.60;10.63;;;;;;;;;;5023800;28;20443;-49
2022/01/13 11:22:36;;;;;;;16.53;9.80;;;;;;;;;;5079522;28;20446;-50
2022/01/13 11:25:03;;;;;;;14.43;10.00;;;;;;;;;;5081986;28;21122;-50
2022/01/13 11:27:30;;;;;;;13.93;9.00;;;;;;;;;;5068439;28;20479;-49
2022/01/13 11:29:57;;;;;;;14.67;8.80;;;;;;;;;;5077334;28;20444;-49
2022/01/13 11:32:24;;;;;;;14.03;9.63;;;;;;;;;;5074178;28;20425;-50
2022/01/13 11:34:50;;;;;;;11.60;9.47;;;;;;;;;;5083321;28;20480;-50
2022/01/13 11:37:16;;;;;;;11.80;9.97;;;;;;;;;;5057401;28;20519;-49
2022/01/13 11:39:43;;;;;;;14.47;10.13;;;;;;;;;;5073266;28;20953;-50
2022/01/13 11:42:12;;;;;;;11.80;8.80;;;;;;;;;;5058850;28;20439;-51
2022/01/13 11:44:38;;;;;;;14.13;9.73;;;;;;;;;;5073351;28;20454;-50
2022/01/13 11:47:30;;;;;;;16.60;10.70;;;;;;;;;;5035442;28;20432;-50
2022/01/13 11:50:09;;;;;;;13.73;9.70;;;;;;;;;;5081887;28;20428;-50
2022/01/13 11:52:48;;;;;;;15.80;10.87;;;;;;;;;;5059842;28;21196;-50
2022/01/13 11:55:21;;;;;;;14.13;9.97;;;;;;;;;;5082491;28;20475;-48
2022/01/13 11:57:47;;;;;;;13.57;9.90;;;;;;;;;;5091679;28;20440;-50
2022/01/13 12:00:22;;;;;;;13.80;9.30;;;;;;;;;;5090068;28;20991;-51
2022/01/13 12:02:48;;;;;;;15.17;10.80;;;;;;;;;;5077284;28;20439;-48
2022/01/13 12:05:21;;;;;;;12.80;10.43;;;;;;;;;;5083207;28;20879;-50
2022/01/13 12:07:53;;;;;;;15.03;11.13;;;;;;;;;;5066773;28;21850;-49
2022/01/13 12:10:25;;;;;;;14.00;10.60;;;;;;;;;;5070841;28;20531;-50
2022/01/13 12:12:52;;;;;;;14.97;11.50;;;;;;;;;;5039078;28;20439;-49
2022/01/13 12:15:31;;;;;;;15.50;12.60;;;;;;;;;;5082547;28;20543;-49
2022/01/13 12:18:05;;;;;;;16.33;10.83;;;;;;;;;;5060859;28;21296;-51
2022/01/13 12:20:58;;;;;;;14.03;11.77;;;;;;;;;;5066849;28;20440;-51
2022/01/13 12:23:38;;;;;;;14.80;12.40;;;;;;;;;;5048098;28;20812;-49
2022/01/13 12:26:28;;;;;;;15.50;13.00;;;;;;;;;;5093828;28;20749;-53
2022/01/13 12:29:11;;;;;;;16.53;13.20;;;;;;;;;;5060970;28;20433;-50
2022/01/13 12:32:03;;;;;;;16.90;10.97;;;;;;;;;;5088726;28;20455;-49
2022/01/13 12:34:43;;;;;;;12.70;11.03;;;;;;;;;;5075606;28;20542;-51
2022/01/13 12:37:45;;;;;;;14.20;10.70;;;;;;;;;;5089321;28;20413;-49
2022/01/13 12:40:17;;;;;;;17.80;10.60;;;;;;;;;;5066887;28;20439;-50
2022/01/13 12:42:53;;;;;;;13.53;11.40;;;;;;;;;;5053891;28;20455;-51
2022/01/13 12:45:34;;;;;;;14.70;11.20;;;;;;;;;;5088667;28;20424;-51
2022/01/13 12:48:08;;;;;;;12.27;10.23;;;;;;;;;;5071334;28;20437;-49
2022/01/13 12:50:38;;;;;;;19.73;12.10;;;;;;;;;;5072402;28;21023;-48
2022/01/13 12:53:26;;;;;;;17.30;11.47;;;;;;;;;;5089417;28;20968;-50
2022/01/13 12:55:54;;;;;;;17.43;12.33;;;;;;;;;;5086111;28;20481;-50
2022/01/13 12:58:22;;;;;;;15.57;10.53;;;;;;;;;;5098729;28;20477;-51
2022/01/13 13:00:49;;;;;;;14.13;10.40;;;;;;;;;;5040948;28;20444;-49
2022/01/13 13:03:18;;;;;;;18.70;12.60;;;;;;;;;;5084916;28;20772;-50
2022/01/13 13:05:48;;;;;;;15.90;11.50;;;;;;;;;;5083698;28;20463;-49
2022/01/13 13:08:23;;;;;;;14.60;10.47;;;;;;;;;;5083897;28;20429;-50
2022/01/13 13:10:57;;;;;;;17.30;10.00;;;;;;;;;;5069967;28;20527;-50
2022/01/13 13:13:24;;;;;;;16.80;11.57;;;;;;;;;;5087059;28;20428;-51
2022/01/13 13:15:52;;;;;;;17.77;11.67;;;;;;;;;;5052042;28;20545;-51
2022/01/13 13:18:18;;;;;;;17.00;10.50;;;;;;;;;;5084437;28;20440;-50
2022/01/13 13:20:53;;;;;;;17.10;10.60;;;;;;;;;;5063844;28;20554;-53
2022/01/13 13:23:34;;;;;;;15.03;10.70;;;;;;;;;;5084056;28;20528;-50
2022/01/13 13:26:16;;;;;;;11.10;9.43;;;;;;;;;;5054719;28;24357;-50
2022/01/13 13:28:46;;;;;;;17.70;11.47;;;;;;;;;;5077458;28;20451;-50
2022/01/13 13:31:40;;;;;;;20.40;11.40;;;;;;;;;;5065904;28;20432;-51
2022/01/13 13:34:12;;;;;;;16.73;11.20;;;;;;;;;;5085684;28;20523;-51
2022/01/13 13:36:52;;;;;;;18.90;11.83;;;;;;;;;;5056241;28;20467;-51
2022/01/13 13:39:21;;;;;;;13.13;10.30;;;;;;;;;;5080133;28;20848;-51
2022/01/13 13:41:55;;;;;;;18.83;12.20;;;;;;;;;;5054376;28;22551;-51
2022/01/13 13:44:23;;;;;;;17.00;11.07;;;;;;;;;;5075073;28;20551;-50
2022/01/13 13:47:13;;;;;;;15.87;11.33;;;;;;;;;;5062810;28;22792;-55
2022/01/13 13:49:46;;;;;;;14.13;10.03;;;;;;;;;;5086935;28;20436;-50
2022/01/13 13:52:15;;;;;;;20.20;11.87;;;;;;;;;;5058748;28;20462;-51
2022/01/13 13:54:45;;;;;;;20.23;12.20;;;;;;;;;;5081161;28;20467;-49
2022/01/13 13:57:18;;;;;;;15.57;11.50;;;;;;;;;;5042427;28;20696;-49
2022/01/13 13:59:50;;;;;;;16.10;11.43;;;;;;;;;;5084375;28;20424;-50
2022/01/13 14:02:20;;;;;;;20.90;10.83;;;;;;;;;;5066444;28;20803;-49
2022/01/13 14:04:49;;;;;;;19.90;10.80;;;;;;;;;;5091694;28;20482;-49
2022/01/13 14:07:27;;;;;;;15.93;11.50;;;;;;;;;;5043562;28;20903;-49
2022/01/13 14:09:56;;;;;;;15.20;11.47;;;;;;;;;;5086313;28;20631;-50
2022/01/13 14:12:27;;;;;;;16.17;11.93;;;;;;;;;;5051549;28;20435;-49
2022/01/13 14:14:55;;;;;;;16.10;11.70;;;;;;;;;;5081498;28;20464;-49
2022/01/13 14:17:31;;;;;;;19.57;13.30;;;;;;;;;;5068238;28;20440;-50
2022/01/13 14:20:03;;;;;;;13.43;11.60;;;;;;;;;;5085357;28;20440;-50
2022/01/13 14:22:30;;;;;;;21.80;12.07;;;;;;;;;;5061297;28;20455;-50
2022/01/13 14:24:58;;;;;;;17.27;11.13;;;;;;;;;;5077451;28;20958;-50
2022/01/13 14:27:24;;;;;;;16.47;11.07;;;;;;;;;;5044868;28;20484;-50
2022/01/13 14:29:51;;;;;;;16.60;10.53;;;;;;;;;;5086703;28;20459;-52
2022/01/13 14:32:36;;;;;;;19.33;11.77;;;;;;;;;;5073088;28;20777;-51
2022/01/13 14:35:05;;;;;;;14.30;11.00;;;;;;;;;;5081341;28;20977;-50
2022/01/13 14:37:56;;;;;;;15.47;10.20;;;;;;;;;;5062520;28;20976;-51
2022/01/13 14:40:23;;;;;;;18.07;11.13;;;;;;;;;;5078211;28;20530;-49
2022/01/13 14:42:50;;;;;;;17.10;10.77;;;;;;;;;;5086242;28;20625;-49
2022/01/13 14:45:22;;;;;;;15.53;10.13;;;;;;;;;;5079171;28;20420;-48
2022/01/13 14:47:49;;;;;;;14.33;9.50;;;;;;;;;;5047769;28;21143;-49
2022/01/13 14:50:16;;;;;;;19.73;11.67;;;;;;;;;;5072817;28;20440;-50
2022/01/13 14:52:45;;;;;;;15.07;10.00;;;;;;;;;;5052994;28;20444;-49
2022/01/13 14:55:11;;;;;;;19.03;11.40;;;;;;;;;;5061633;28;21122;-49
2022/01/13 14:57:37;;;;;;;11.07;8.47;;;;;;;;;;5091940;28;20432;-49
2022/01/13 15:00:08;;;;;;;14.97;9.60;;;;;;;;;;5039058;28;20445;-50
2022/01/13 15:02:38;;;;;;;15.57;10.13;;;;;;;;;;5082729;28;20425;-50
2022/01/13 15:05:12;;;;;;;18.20;10.13;;;;;;;;;;5059510;28;20444;-49
2022/01/13 15:07:40;;;;;;;15.97;11.27;;;;;;;;;;5081424;28;20439;-50
2022/01/13 15:10:06;;;;;;;15.53;10.13;;;;;;;;;;5067942;28;20440;-49